createdAt,value
2022-08-21T00:00:27.948Z,21.63
2022-08-21T00:02:59.064Z,20.25
2022-08-21T00:05:27.004Z,22.15
2022-08-21T00:07:54.007Z,20.58
2022-08-21T00:10:21.004Z,20.55
2022-08-21T00:12:48.226Z,20.83
2022-08-21T00:15:20.599Z,20.27
2022-08-21T00:17:47.488Z,19.92
2022-08-21T00:20:16.833Z,21.70
2022-08-21T00:22:44.066Z,24.13
2022-08-21T00:25:12.094Z,22.70
2022-08-21T00:27:39.045Z,24.25
2022-08-21T00:30:09.774Z,22.02
2022-08-21T00:32:39.009Z,21.50
2022-08-21T00:35:12.692Z,23.88
2022-08-21T00:37:40.983Z,24.15
2022-08-21T00:40:13.184Z,23.42
2022-08-21T00:42:40.225Z,24.55
2022-08-21T00:45:07.937Z,23.08
2022-08-21T00:47:34.786Z,24.08
2022-08-21T00:50:02.033Z,22.75
2022-08-21T00:52:33.213Z,23.05
2022-08-21T00:55:01.075Z,23.40
2022-08-21T00:57:34.570Z,23.13
2022-08-21T01:00:04.948Z,24.17
2022-08-21T01:02:32.324Z,24.23
2022-08-21T01:04:59.308Z,24.42
2022-08-21T01:07:27.541Z,23.95
2022-08-21T01:09:54.662Z,22.75
2022-08-21T01:12:21.536Z,23.00
2022-08-21T01:14:49.514Z,21.75
2022-08-21T01:17:18.517Z,21.85
2022-08-21T01:19:45.347Z,22.20
2022-08-21T01:22:12.297Z,21.58
2022-08-21T01:24:39.218Z,22.55
2022-08-21T01:27:06.537Z,20.38
2022-08-21T01:29:39.717Z,21.48
2022-08-21T01:32:10.467Z,21.95
2022-08-21T01:34:40.715Z,23.70
2022-08-21T01:37:08.379Z,21.13
2022-08-21T01:39:36.735Z,23.13
2022-08-21T01:42:04.915Z,22.73
2022-08-21T01:44:32.355Z,22.45
2022-08-21T01:47:02.155Z,23.20
2022-08-21T01:49:29.792Z,21.30
2022-08-21T01:51:56.613Z,23.55
2022-08-21T01:54:23.649Z,22.33
2022-08-21T01:56:53.407Z,23.63
2022-08-21T01:59:22.494Z,22.10
2022-08-21T02:01:49.881Z,26.45
2022-08-21T02:04:16.906Z,25.88
2022-08-21T02:06:44.970Z,24.60
2022-08-21T02:09:15.014Z,24.33
2022-08-21T02:11:42.775Z,25.27
2022-08-21T02:14:15.274Z,25.02
2022-08-21T02:17:05.511Z,24.48
2022-08-21T02:19:40.413Z,23.13
2022-08-21T02:22:11.647Z,23.23
2022-08-21T02:24:54.037Z,22.88
2022-08-21T02:27:27.229Z,23.45
2022-08-21T02:29:57.760Z,23.88
2022-08-21T02:32:25.149Z,22.98
2022-08-21T02:34:53.247Z,26.83
2022-08-21T02:37:20.155Z,24.23
2022-08-21T02:39:47.051Z,24.42
2022-08-21T02:42:13.995Z,24.55
2022-08-21T02:44:40.790Z,23.52
2022-08-21T02:47:08.104Z,24.05
2022-08-21T02:49:35.009Z,24.70
2022-08-21T02:52:01.847Z,26.27
2022-08-21T02:54:28.785Z,24.27
2022-08-21T02:56:55.629Z,25.23
2022-08-21T02:59:22.457Z,26.70
2022-08-21T03:01:49.331Z,27.65
2022-08-21T03:04:16.290Z,25.63
2022-08-21T03:06:43.826Z,27.08
2022-08-21T03:09:10.694Z,25.67
2022-08-21T03:11:37.566Z,25.90
2022-08-21T03:14:06.140Z,25.55
2022-08-21T03:16:35.127Z,26.83
2022-08-21T03:19:03.753Z,25.98
2022-08-21T03:21:31.325Z,27.70
2022-08-21T03:23:58.168Z,28.13
2022-08-21T03:26:27.836Z,28.05
2022-08-21T03:28:58.660Z,27.02
2022-08-21T03:31:29.665Z,28.17
2022-08-21T03:33:57.447Z,28.52
2022-08-21T03:36:24.936Z,28.00
2022-08-21T03:38:51.848Z,28.08
2022-08-21T03:41:18.708Z,29.40
2022-08-21T03:43:45.585Z,28.85
2022-08-21T03:46:12.682Z,27.88
2022-08-21T03:48:39.939Z,27.48
2022-08-21T03:51:07.586Z,27.30
2022-08-21T03:53:35.016Z,29.52
2022-08-21T03:56:01.907Z,28.42
2022-08-21T03:58:29.522Z,27.50
2022-08-21T04:00:58.995Z,29.42
2022-08-21T04:03:27.039Z,28.73
2022-08-21T04:05:54.019Z,28.75
2022-08-21T04:08:20.971Z,31.05
2022-08-21T04:10:50.984Z,30.58
2022-08-21T04:13:18.200Z,28.98
2022-08-21T04:15:45.096Z,30.13
2022-08-21T04:18:12.067Z,29.00
2022-08-21T04:20:40.393Z,29.27
2022-08-21T04:23:08.009Z,28.70
2022-08-21T04:25:34.936Z,27.65
2022-08-21T04:28:03.076Z,28.52
2022-08-21T04:30:30.296Z,28.73
2022-08-21T04:32:59.014Z,28.75
2022-08-21T04:35:28.732Z,27.38
2022-08-21T04:37:55.666Z,27.35
2022-08-21T04:40:25.739Z,26.95
2022-08-21T04:42:55.863Z,26.90
2022-08-21T04:45:27.357Z,26.80
2022-08-21T04:47:56.424Z,26.45
2022-08-21T04:50:37.149Z,25.98
2022-08-21T04:53:08.510Z,26.33
2022-08-21T04:55:36.064Z,26.00
2022-08-21T04:58:02.974Z,26.23
2022-08-21T05:00:30.093Z,24.93
2022-08-21T05:03:00.437Z,23.50
2022-08-21T05:05:30.155Z,22.03
2022-08-21T05:08:00.436Z,23.13
2022-08-21T05:10:27.703Z,26.40
2022-08-21T05:12:55.689Z,24.10
2022-08-21T05:15:23.031Z,23.45
2022-08-21T05:17:52.402Z,23.73
2022-08-21T05:20:22.308Z,22.95
2022-08-21T05:22:49.157Z,22.45
2022-08-21T05:25:17.693Z,23.20
2022-08-21T05:27:49.247Z,22.73
2022-08-21T05:30:18.985Z,21.88
2022-08-21T05:32:45.766Z,23.42
2022-08-21T05:35:12.731Z,22.58
2022-08-21T05:37:39.597Z,23.40
2022-08-21T05:40:22.486Z,22.27
2022-08-21T05:42:55.564Z,22.55
2022-08-21T05:45:41.680Z,21.95
2022-08-21T05:48:21.214Z,21.83
2022-08-21T05:50:49.084Z,20.58
2022-08-21T05:53:18.418Z,21.42
2022-08-21T05:55:47.000Z,21.48
2022-08-21T05:58:16.747Z,21.95
2022-08-21T06:00:44.910Z,22.15
2022-08-21T06:03:13.693Z,20.48
2022-08-21T06:05:40.528Z,21.02
2022-08-21T06:08:07.289Z,21.27
2022-08-21T06:10:34.098Z,21.98
2022-08-21T06:13:01.134Z,20.67
2022-08-21T06:15:28.289Z,18.83
2022-08-21T06:17:55.913Z,19.50
2022-08-21T06:20:22.999Z,18.75
2022-08-21T06:22:49.842Z,18.38
2022-08-21T06:25:16.757Z,18.70
2022-08-21T06:27:43.658Z,17.53
2022-08-21T06:30:11.023Z,17.45
2022-08-21T06:32:38.797Z,17.85
2022-08-21T06:35:06.354Z,17.70
2022-08-21T06:37:33.785Z,18.48
2022-08-21T06:40:00.725Z,17.77
2022-08-21T06:42:29.093Z,18.63
2022-08-21T06:44:57.581Z,18.65
2022-08-21T06:47:24.668Z,16.35
2022-08-21T06:49:51.491Z,15.98
2022-08-21T06:52:18.351Z,15.77
2022-08-21T06:54:46.425Z,15.43
2022-08-21T06:57:13.282Z,15.68
2022-08-21T06:59:40.186Z,14.85
2022-08-21T07:02:07.088Z,15.02
2022-08-21T07:04:34.410Z,14.63
2022-08-21T07:07:01.289Z,14.88
2022-08-21T07:09:28.161Z,13.98
2022-08-21T07:11:56.688Z,14.20
2022-08-21T07:14:23.874Z,12.95
2022-08-21T07:16:51.772Z,14.00
2022-08-21T07:19:18.978Z,13.88
2022-08-21T07:21:46.001Z,13.32
2022-08-21T07:24:13.583Z,12.88
2022-08-21T07:26:41.117Z,12.13
2022-08-21T07:29:07.901Z,11.52
2022-08-21T07:31:34.716Z,10.48
2022-08-21T07:34:01.692Z,12.30
2022-08-21T07:36:28.601Z,10.15
2022-08-21T07:38:55.480Z,8.85
2022-08-21T07:41:25.602Z,10.25
2022-08-21T07:43:53.158Z,9.10
2022-08-21T07:46:20.632Z,8.00
2022-08-21T07:48:47.633Z,7.95
2022-08-21T07:51:17.666Z,8.48
2022-08-21T07:53:49.861Z,7.80
2022-08-21T07:56:17.539Z,8.98
2022-08-21T07:58:44.414Z,12.63
2022-08-21T08:01:11.512Z,8.80
2022-08-21T08:03:39.728Z,10.35
2022-08-21T08:06:09.562Z,10.57
2022-08-21T08:08:36.401Z,8.38
2022-08-21T08:11:03.322Z,8.40
2022-08-21T08:13:30.242Z,9.32
2022-08-21T08:15:57.617Z,9.48
2022-08-21T08:18:24.435Z,9.52
2022-08-21T08:20:51.310Z,10.40
2022-08-21T08:23:18.315Z,10.02
2022-08-21T08:25:45.178Z,11.77
2022-08-21T08:28:17.021Z,10.15
2022-08-21T08:30:47.565Z,11.30
2022-08-21T08:33:15.401Z,11.73
2022-08-21T08:35:45.640Z,10.40
2022-08-21T08:38:13.219Z,11.23
2022-08-21T08:40:49.116Z,10.93
2022-08-21T08:43:16.080Z,11.55
2022-08-21T08:45:47.793Z,11.18
2022-08-21T08:48:20.688Z,11.90
2022-08-21T08:50:57.419Z,11.70
2022-08-21T08:53:31.150Z,13.55
2022-08-21T08:55:59.067Z,12.52
2022-08-21T08:58:33.609Z,11.98
2022-08-21T09:01:01.072Z,13.45
2022-08-21T09:03:29.153Z,14.15
2022-08-21T09:06:10.393Z,13.48
2022-08-21T09:08:40.051Z,16.67
2022-08-21T09:11:30.011Z,14.65
2022-08-21T09:13:56.760Z,14.93
2022-08-21T09:16:50.565Z,15.13
2022-08-21T09:19:36.561Z,15.77
2022-08-21T09:22:18.590Z,14.02
2022-08-21T09:25:03.831Z,15.70
2022-08-21T09:27:32.417Z,15.25
2022-08-21T09:29:59.629Z,14.45
2022-08-21T09:32:37.840Z,14.00
2022-08-21T09:35:14.273Z,14.10
2022-08-21T09:37:53.568Z,14.23
2022-08-21T09:40:23.309Z,14.00
2022-08-21T09:42:59.261Z,15.13
2022-08-21T09:45:26.501Z,16.02
2022-08-21T09:47:53.376Z,15.30
2022-08-21T09:50:27.759Z,16.98
2022-08-21T09:53:01.138Z,15.25
2022-08-21T09:55:58.541Z,14.95
2022-08-21T09:58:36.081Z,13.30
2022-08-21T10:01:05.741Z,13.05
2022-08-21T10:03:32.949Z,12.65
2022-08-21T10:06:09.552Z,10.98
2022-08-21T10:08:40.122Z,12.65
2022-08-21T10:11:16.645Z,13.80
2022-08-21T10:13:46.322Z,13.57
2022-08-21T10:16:35.213Z,12.98
2022-08-21T10:19:15.470Z,12.48
2022-08-21T10:22:18.323Z,12.85
2022-08-21T10:25:20.842Z,14.00
2022-08-21T10:28:13.583Z,15.55
2022-08-21T10:31:03.775Z,14.82
2022-08-21T10:34:09.260Z,16.27
2022-08-21T10:37:13.369Z,16.73
2022-08-21T10:40:05.869Z,17.20
2022-08-21T10:42:56.615Z,15.45
2022-08-21T10:46:08.118Z,16.70
2022-08-21T10:48:46.719Z,17.15
2022-08-21T10:51:16.501Z,17.85
2022-08-21T10:53:56.081Z,17.33
2022-08-21T10:56:29.702Z,16.15
2022-08-21T10:59:09.334Z,15.98
2022-08-21T11:01:54.240Z,16.83
2022-08-21T11:04:30.009Z,15.48
2022-08-21T11:07:22.204Z,15.55
2022-08-21T11:09:50.825Z,15.68
2022-08-21T11:12:24.992Z,14.90
2022-08-21T11:14:56.445Z,14.18
2022-08-21T11:17:34.091Z,13.57
2022-08-21T11:20:23.108Z,14.00
2022-08-21T11:23:15.507Z,15.95
2022-08-21T11:25:48.135Z,15.55
2022-08-21T11:28:32.249Z,15.13
2022-08-21T11:31:23.240Z,15.93
2022-08-21T11:34:26.909Z,16.40
2022-08-21T11:37:19.542Z,15.45
2022-08-21T11:40:01.452Z,15.93
2022-08-21T11:42:39.170Z,14.55
2022-08-21T11:45:47.165Z,15.95
2022-08-21T11:48:38.792Z,16.77
2022-08-21T11:51:19.790Z,17.30
2022-08-21T11:53:54.261Z,19.30
2022-08-21T11:56:35.957Z,18.92
2022-08-21T11:59:14.832Z,19.00
2022-08-21T12:01:46.290Z,20.33
2022-08-21T12:04:46.904Z,22.40
2022-08-21T12:07:18.406Z,22.73
2022-08-21T12:09:57.145Z,21.38
2022-08-21T12:12:34.227Z,20.77
2022-08-21T12:15:22.730Z,18.63
2022-08-21T12:18:19.759Z,17.65
2022-08-21T12:21:04.679Z,16.83
2022-08-21T12:23:33.243Z,16.73
2022-08-21T12:26:04.473Z,18.15
2022-08-21T12:28:32.386Z,16.92
2022-08-21T12:30:59.560Z,15.93
2022-08-21T12:33:40.278Z,15.93
2022-08-21T12:36:22.013Z,16.90
2022-08-21T12:38:53.342Z,15.00
2022-08-21T12:41:25.647Z,15.93
2022-08-21T12:44:05.361Z,14.65
2022-08-21T12:46:47.320Z,14.27
2022-08-21T12:49:19.839Z,14.70
2022-08-21T12:51:57.534Z,13.50
2022-08-21T12:54:37.867Z,14.68
2022-08-21T12:57:06.963Z,15.15
2022-08-21T12:59:39.054Z,15.52
2022-08-21T13:02:25.850Z,15.23
2022-08-21T13:04:56.182Z,14.23
2022-08-21T13:07:35.492Z,14.43
2022-08-21T13:10:25.494Z,13.93
2022-08-21T13:12:56.005Z,14.38
2022-08-21T13:15:35.034Z,12.98
2022-08-21T13:18:04.423Z,13.43
2022-08-21T13:20:43.316Z,13.13
2022-08-21T13:23:26.935Z,13.02
2022-08-21T13:25:55.111Z,12.07
2022-08-21T13:28:22.806Z,13.25
2022-08-21T13:30:53.124Z,13.85
2022-08-21T13:33:23.994Z,15.88
2022-08-21T13:36:10.175Z,15.60
2022-08-21T13:38:40.117Z,17.08
2022-08-21T13:41:26.633Z,16.63
2022-08-21T13:44:18.440Z,16.25
2022-08-21T13:46:48.899Z,15.45
2022-08-21T13:49:20.190Z,15.60
2022-08-21T13:51:47.715Z,15.63
2022-08-21T13:54:28.047Z,14.52
2022-08-21T13:56:55.764Z,15.07
2022-08-21T13:59:35.639Z,15.85
2022-08-21T14:02:13.666Z,14.70
2022-08-21T14:05:02.617Z,15.20
2022-08-21T14:07:40.244Z,14.75
2022-08-21T14:10:21.665Z,13.02
2022-08-21T14:13:06.584Z,15.13
2022-08-21T14:15:35.440Z,15.27
2022-08-21T14:18:17.173Z,14.02
2022-08-21T14:20:44.885Z,14.55
2022-08-21T14:23:12.557Z,14.93
2022-08-21T14:25:45.942Z,14.60
2022-08-21T14:28:27.893Z,14.55
2022-08-21T14:30:57.710Z,14.25
2022-08-21T14:33:31.851Z,14.40
2022-08-21T14:35:59.738Z,14.02
2022-08-21T14:38:29.180Z,13.82
2022-08-21T14:41:04.415Z,14.15
2022-08-21T14:43:32.364Z,14.93
2022-08-21T14:45:59.382Z,14.95
2022-08-21T14:48:26.258Z,14.70
2022-08-21T14:50:57.096Z,14.77
2022-08-21T14:53:26.634Z,15.55
2022-08-21T14:56:08.655Z,15.27
2022-08-21T14:58:50.217Z,16.05
2022-08-21T15:01:19.437Z,15.73
2022-08-21T15:03:49.250Z,16.55
2022-08-21T15:06:18.497Z,16.17
2022-08-21T15:08:45.448Z,16.73
2022-08-21T15:11:41.771Z,13.50
2022-08-21T15:14:11.792Z,15.65
2022-08-21T15:16:38.792Z,16.77
2022-08-21T15:19:05.632Z,15.50
2022-08-21T15:21:32.542Z,14.63
2022-08-21T15:23:59.393Z,15.52
2022-08-21T15:26:26.968Z,14.90
2022-08-21T15:28:53.810Z,15.10
2022-08-21T15:31:20.669Z,15.07
2022-08-21T15:33:47.570Z,14.98
2022-08-21T15:36:14.616Z,15.45
2022-08-21T15:38:41.526Z,16.13
2022-08-21T15:41:08.541Z,15.95
2022-08-21T15:43:46.301Z,14.15
2022-08-21T15:46:15.521Z,15.07
2022-08-21T15:48:42.634Z,15.95
2022-08-21T15:51:11.847Z,15.90
2022-08-21T15:53:40.974Z,15.18
2022-08-21T15:56:25.652Z,16.13
2022-08-21T15:58:56.943Z,15.15
2022-08-21T16:01:23.849Z,15.40
2022-08-21T16:03:53.154Z,15.52
2022-08-21T16:06:38.483Z,16.60
2022-08-21T16:09:06.890Z,15.68
2022-08-21T16:11:33.770Z,15.10
2022-08-21T16:14:00.823Z,14.82
2022-08-21T16:16:29.125Z,15.52
2022-08-21T16:18:58.709Z,14.25
2022-08-21T16:21:25.574Z,15.27
2022-08-21T16:23:52.538Z,14.32
2022-08-21T16:26:19.434Z,14.25
2022-08-21T16:28:50.024Z,14.95
2022-08-21T16:31:17.075Z,15.40
2022-08-21T16:33:48.292Z,14.88
2022-08-21T16:36:15.897Z,14.40
2022-08-21T16:38:43.773Z,14.93
2022-08-21T16:41:13.811Z,15.38
2022-08-21T16:43:42.823Z,14.18
2022-08-21T16:46:12.239Z,15.50
2022-08-21T16:48:40.419Z,14.20
2022-08-21T16:51:07.847Z,14.63
2022-08-21T16:53:34.949Z,13.85
2022-08-21T16:56:01.914Z,14.38
2022-08-21T16:58:34.920Z,16.05
2022-08-21T17:01:06.411Z,15.20
2022-08-21T17:03:39.055Z,14.40
2022-08-21T17:06:07.984Z,15.82
2022-08-21T17:08:35.329Z,15.02
2022-08-21T17:11:03.126Z,15.35
2022-08-21T17:13:30.771Z,14.68
2022-08-21T17:15:57.621Z,14.82
2022-08-21T17:18:25.550Z,15.68
2022-08-21T17:20:52.903Z,14.52
2022-08-21T17:23:20.654Z,15.75
2022-08-21T17:25:50.926Z,14.88
2022-08-21T17:28:23.258Z,14.70
2022-08-21T17:30:51.404Z,15.43
2022-08-21T17:33:19.685Z,15.60
2022-08-21T17:35:47.252Z,16.15
2022-08-21T17:38:14.848Z,16.10
2022-08-21T17:40:42.698Z,16.38
2022-08-21T17:43:12.902Z,16.70
2022-08-21T17:45:40.608Z,16.60
2022-08-21T17:48:08.308Z,16.67
2022-08-21T17:50:35.753Z,15.65
2022-08-21T17:53:05.176Z,16.20
2022-08-21T17:55:33.982Z,15.55
2022-08-21T17:58:03.659Z,15.95
2022-08-21T18:00:31.798Z,17.85
2022-08-21T18:03:14.639Z,17.73
2022-08-21T18:05:46.795Z,16.45
2022-08-21T18:08:14.619Z,16.08
2022-08-21T18:10:45.013Z,19.10
2022-08-21T18:13:17.371Z,18.08
2022-08-21T18:15:49.074Z,18.45
2022-08-21T18:18:15.988Z,19.73
2022-08-21T18:20:42.945Z,19.15
2022-08-21T18:23:09.805Z,19.02
2022-08-21T18:25:36.793Z,19.75
2022-08-21T18:28:06.927Z,22.10
2022-08-21T18:30:41.577Z,25.65
2022-08-21T18:33:11.333Z,22.92
2022-08-21T18:35:38.138Z,23.60
2022-08-21T18:38:04.932Z,23.02
2022-08-21T18:40:33.745Z,23.52
2022-08-21T18:43:04.076Z,24.35
2022-08-21T18:45:31.132Z,23.17
2022-08-21T18:47:58.535Z,23.42
2022-08-21T18:50:27.570Z,24.98
2022-08-21T18:52:55.795Z,24.10
2022-08-21T18:55:24.645Z,24.77
2022-08-21T18:57:53.070Z,24.45
2022-08-21T19:00:24.223Z,25.08
2022-08-21T19:02:51.532Z,22.77
2022-08-21T19:05:21.139Z,25.52
2022-08-21T19:07:50.671Z,27.90
2022-08-21T19:10:24.182Z,25.92
2022-08-21T19:12:57.914Z,25.77
2022-08-21T19:15:24.970Z,25.25
2022-08-21T19:17:54.540Z,24.98
2022-08-21T19:20:27.165Z,23.20
2022-08-21T19:25:46.375Z,26.70
2022-08-21T19:28:25.962Z,25.20
2022-08-21T19:31:01.727Z,24.85
2022-08-21T19:33:34.084Z,26.08
2022-08-21T19:36:02.490Z,26.25
2022-08-21T19:38:29.862Z,25.42
2022-08-21T19:40:57.343Z,24.58
2022-08-21T19:43:24.874Z,24.98
2022-08-21T19:45:56.924Z,23.92
2022-08-21T19:48:26.039Z,23.60
2022-08-21T19:50:53.558Z,23.70
2022-08-21T19:53:20.641Z,21.30
2022-08-21T19:55:48.474Z,19.95
2022-08-21T19:58:32.283Z,21.25
2022-08-21T20:00:59.148Z,20.17
2022-08-21T20:03:26.205Z,20.25
2022-08-21T20:05:54.115Z,20.75
2022-08-21T20:08:21.203Z,21.80
2022-08-21T20:10:49.929Z,20.80
2022-08-21T20:13:22.107Z,20.15
2022-08-21T20:15:50.550Z,20.75
2022-08-21T20:18:18.334Z,19.35
2022-08-21T20:20:48.393Z,18.67
2022-08-21T20:23:17.198Z,20.27
2022-08-21T20:25:45.003Z,19.83
2022-08-21T20:28:12.988Z,20.05
2022-08-21T20:33:29.321Z,18.15
2022-08-21T20:35:56.163Z,19.10
2022-08-21T20:38:24.388Z,19.13
2022-08-21T20:40:53.537Z,19.60
2022-08-21T20:43:22.430Z,19.35
2022-08-21T20:45:50.066Z,20.02
2022-08-21T20:48:30.830Z,21.27
2022-08-21T20:51:06.184Z,19.55
2022-08-21T20:53:55.436Z,19.65
2022-08-21T20:56:33.431Z,20.23
2022-08-21T20:59:33.048Z,19.38
2022-08-21T21:02:18.329Z,18.77
2022-08-21T21:04:51.611Z,18.67
2022-08-21T21:07:24.980Z,18.30
2022-08-21T21:09:55.370Z,19.20
2022-08-21T21:12:32.548Z,20.70
2022-08-21T21:15:07.263Z,18.55
2022-08-21T21:17:50.588Z,17.58
2022-08-21T21:20:34.658Z,17.67
2022-08-21T21:23:14.723Z,17.52
2022-08-21T21:25:56.777Z,18.00
2022-08-21T21:28:43.117Z,17.83
2022-08-21T21:31:10.936Z,17.52
2022-08-21T21:33:39.722Z,16.55
2022-08-21T21:36:22.638Z,16.35
2022-08-21T21:39:10.369Z,17.98
2022-08-21T21:41:46.249Z,18.05
2022-08-21T21:44:33.080Z,18.05
2022-08-21T21:47:02.938Z,18.63
2022-08-21T21:49:49.507Z,17.20
2022-08-21T21:52:19.921Z,17.42
2022-08-21T21:55:30.872Z,16.33
2022-08-21T21:58:10.791Z,16.17
2022-08-21T22:00:52.224Z,15.82
2022-08-21T22:03:38.111Z,15.60
2022-08-21T22:06:08.792Z,16.40
2022-08-21T22:08:50.663Z,15.70
2022-08-21T22:11:35.758Z,15.38
2022-08-21T22:14:22.792Z,15.45
2022-08-21T22:16:51.237Z,17.52
2022-08-21T22:19:37.733Z,15.90
2022-08-21T22:22:34.268Z,17.02
2022-08-21T22:25:15.920Z,17.00
2022-08-21T22:27:44.630Z,16.50
2022-08-21T22:30:16.649Z,17.25
2022-08-21T22:32:50.357Z,16.67
2022-08-21T22:35:23.572Z,16.92
2022-08-21T22:37:58.685Z,18.00
2022-08-21T22:40:36.065Z,18.63
2022-08-21T22:43:09.744Z,17.30
2022-08-21T22:46:00.721Z,16.25
2022-08-21T22:48:31.320Z,17.25
2022-08-21T22:51:01.258Z,17.40
2022-08-21T22:53:30.836Z,19.08
2022-08-21T22:56:00.481Z,18.98
2022-08-21T22:58:52.297Z,19.80
2022-08-21T23:01:22.070Z,18.50
2022-08-21T23:03:57.368Z,16.73
2022-08-21T23:06:32.623Z,16.38
2022-08-21T23:09:01.123Z,17.13
2022-08-21T23:11:39.847Z,14.95
2022-08-21T23:14:07.289Z,16.30
2022-08-21T23:16:47.423Z,15.73
2022-08-21T23:19:51.973Z,17.15
2022-08-21T23:22:34.904Z,16.40
2022-08-21T23:25:24.346Z,19.10
2022-08-21T23:28:51.808Z,19.05
2022-08-21T23:31:32.592Z,16.38
2022-08-21T23:34:05.873Z,18.30
2022-08-21T23:37:48.560Z,20.33
2022-08-21T23:40:51.354Z,19.08
2022-08-21T23:43:25.649Z,20.42
2022-08-21T23:46:33.817Z,20.40
2022-08-21T23:49:13.317Z,21.70
2022-08-21T23:52:22.241Z,22.52
2022-08-21T23:55:11.203Z,22.13
2022-08-21T23:57:48.060Z,21.73
